Terminal Aerodrome Forecast
Issued by NWS

Home | Current Version | Previous Version | Text Only | Print | Product List | Glossary On
Versions: 1 2 3 4 5 6 7 8 9 10 11 12 13 14
000
FTUS43 KMQT 280500
TAFSAW
TAF
KSAW 280520Z 2806/2906 26005KT P6SM BKN200
     FM281000 19003KT P6SM BKN120
     FM281900 20007KT 6SM -SN OVC030
     FM282100 18007KT 5SM -SN OVC015
     FM290400 16003KT P6SM OVC010
      AMD LTD TO CLD VIS AND WIND TIL 281100=

USA.gov is the U.S. government's official web portal to all federal, state and local government web resources and services.